Time;durP1;ratioP1;P1;durP2;ratioP2;P2;SDS_P1;SDS_P2;PMS_P1;PMS_P2;Temp;Humidity;BMP_temperature;BMP_pressure;BME280_temperature;BME280_humidity;BME280_pressure;Samples;Min_cycle;Max_cycle;Signal;HPM_P1;HPM_P2
2020/12/29 00:00:43;;;;;;;13.43;8.02;;;2.10;96.60;;;;;;5016158;28;20164;-71
2020/12/29 00:03:09;;;;;;;13.60;7.90;;;2.10;96.50;;;;;;5014817;28;20101;-70
2020/12/29 00:05:37;;;;;;;13.18;8.50;;;2.00;96.60;;;;;;5017786;28;20042;-70
2020/12/29 00:10:37;;;;;;;12.50;6.93;;;2.00;96.70;;;;;;5073708;28;20067;-66
2020/12/29 00:13:03;;;;;;;12.98;7.40;;;2.00;96.70;;;;;;5046633;28;20583;-65
2020/12/29 00:15:29;;;;;;;11.32;7.63;;;1.90;96.70;;;;;;5064854;28;20175;-66
2020/12/29 00:17:54;;;;;;;12.07;8.00;;;1.90;96.70;;;;;;5058723;28;20040;-65
2020/12/29 00:20:20;;;;;;;10.95;6.65;;;1.90;96.70;;;;;;5032910;28;20453;-65
2020/12/29 00:22:46;;;;;;;11.57;6.80;;;1.90;96.70;;;;;;5021333;28;20052;-65
2020/12/29 00:25:15;;;;;;;10.45;7.00;;;1.80;96.70;;;;;;5047036;28;20108;-65
2020/12/29 00:27:40;;;;;;;10.55;6.78;;;1.90;96.80;;;;;;5027719;28;20500;-66
2020/12/29 00:30:06;;;;;;;11.50;6.95;;;1.80;96.70;;;;;;5045107;28;20111;-66
2020/12/29 00:32:32;;;;;;;11.45;6.93;;;1.80;96.70;;;;;;5045788;28;20033;-65
2020/12/29 00:34:57;;;;;;;14.82;7.82;;;1.80;96.70;;;;;;5042224;28;20108;-66
2020/12/29 00:37:23;;;;;;;10.48;6.20;;;1.80;96.80;;;;;;5045537;28;20032;-65
2020/12/29 00:39:48;;;;;;;11.52;6.63;;;1.80;96.80;;;;;;5043610;28;20158;-66
2020/12/29 00:42:14;;;;;;;10.73;6.18;;;1.70;96.80;;;;;;5044772;28;20107;-66
2020/12/29 00:44:39;;;;;;;12.63;6.97;;;1.70;96.80;;;;;;5026685;28;20397;-65
2020/12/29 00:47:05;;;;;;;11.00;6.68;;;1.70;96.80;;;;;;5046185;28;20017;-66
2020/12/29 00:49:31;;;;;;;10.90;6.10;;;1.70;96.90;;;;;;5045185;28;20384;-66
2020/12/29 00:51:57;;;;;;;10.63;6.10;;;1.70;96.90;;;;;;5045454;28;20025;-66
2020/12/29 00:54:22;;;;;;;11.23;6.40;;;1.70;96.90;;;;;;5044702;28;20115;-66
2020/12/29 00:56:48;;;;;;;9.77;5.95;;;1.70;96.90;;;;;;5046059;28;20025;-66
2020/12/29 00:59:13;;;;;;;10.60;6.45;;;1.60;97.00;;;;;;5042885;28;20044;-66
2020/12/29 01:01:40;;;;;;;12.10;6.32;;;1.60;97.00;;;;;;5043550;28;20404;-66
2020/12/29 01:04:05;;;;;;;10.13;6.15;;;1.60;97.00;;;;;;5044542;28;20045;-66
2020/12/29 01:06:31;;;;;;;10.93;6.20;;;1.60;97.00;;;;;;5046667;28;20055;-66
2020/12/29 01:08:57;;;;;;;8.43;5.40;;;1.60;97.00;;;;;;5041144;28;20071;-66
2020/12/29 01:11:22;;;;;;;11.20;5.68;;;1.60;97.00;;;;;;5042867;28;20508;-66
2020/12/29 01:13:48;;;;;;;9.73;4.93;;;1.60;97.00;;;;;;5042944;28;20111;-66
2020/12/29 01:16:14;;;;;;;9.35;5.75;;;1.60;97.10;;;;;;5044303;28;20098;-66
2020/12/29 01:18:39;;;;;;;8.55;5.32;;;1.50;97.00;;;;;;5044950;28;20343;-66
2020/12/29 01:21:08;;;;;;;12.70;6.30;;;1.50;97.00;;;;;;5045417;28;20110;-66
2020/12/29 01:23:34;;;;;;;10.68;5.43;;;1.50;97.10;;;;;;5043980;28;20024;-66
2020/12/29 01:26:00;;;;;;;6.88;4.80;;;1.50;97.10;;;;;;5046003;28;20032;-66
2020/12/29 01:28:26;;;;;;;10.35;5.85;;;1.50;97.10;;;;;;5044035;28;20029;-66
2020/12/29 01:30:51;;;;;;;9.95;5.47;;;1.50;97.10;;;;;;5035338;28;20036;-66
2020/12/29 01:33:17;;;;;;;9.60;5.57;;;1.40;97.10;;;;;;5043856;28;20068;-66
2020/12/29 01:35:43;;;;;;;8.15;4.55;;;1.50;97.10;;;;;;5045502;28;20404;-66
2020/12/29 01:38:08;;;;;;;9.82;5.40;;;1.40;97.10;;;;;;5042752;28;20120;-65
2020/12/29 01:40:35;;;;;;;7.63;4.25;;;1.50;97.20;;;;;;5045297;28;20102;-66
2020/12/29 01:43:01;;;;;;;7.53;4.30;;;1.40;97.10;;;;;;5025984;28;20372;-66
2020/12/29 01:45:27;;;;;;;7.32;4.10;;;1.40;97.00;;;;;;5042157;28;20097;-65
2020/12/29 01:47:53;;;;;;;6.22;3.83;;;1.40;97.10;;;;;;5043413;28;20456;-66
2020/12/29 01:50:22;;;;;;;6.55;4.40;;;1.30;97.10;;;;;;5044237;28;20066;-66
2020/12/29 01:52:55;;;;;;;6.93;4.20;;;1.40;97.10;;;;;;5031292;28;20021;-66
2020/12/29 01:55:21;;;;;;;7.00;4.15;;;1.30;97.10;;;;;;5049466;28;20354;-66
2020/12/29 01:57:47;;;;;;;7.75;4.57;;;1.30;97.10;;;;;;5049391;28;20017;-65
2020/12/29 02:00:13;;;;;;;7.80;4.85;;;1.30;97.10;;;;;;5047744;28;20041;-66
2020/12/29 02:02:40;;;;;;;7.15;4.65;;;1.30;97.10;;;;;;5049447;28;20386;-65
2020/12/29 02:05:06;;;;;;;6.65;4.38;;;1.30;97.10;;;;;;5048320;28;20036;-66
2020/12/29 02:07:32;;;;;;;6.72;4.07;;;1.20;97.10;;;;;;5049436;28;20108;-66
2020/12/29 02:09:58;;;;;;;7.53;4.55;;;1.20;97.10;;;;;;5045132;28;20107;-66
2020/12/29 02:12:26;;;;;;;8.35;4.72;;;1.20;97.10;;;;;;5036690;28;20069;-66
2020/12/29 02:14:52;;;;;;;8.80;4.95;;;1.20;97.10;;;;;;5048071;28;20181;-66
2020/12/29 02:17:18;;;;;;;8.80;5.32;;;1.30;97.20;;;;;;5048712;28;20032;-65
2020/12/29 02:19:44;;;;;;;9.07;5.18;;;1.20;97.20;;;;;;5047262;28;20029;-65
2020/12/29 02:22:10;;;;;;;7.75;5.13;;;1.20;97.20;;;;;;5049336;28;20112;-66
2020/12/29 02:24:36;;;;;;;9.15;5.50;;;1.20;97.20;;;;;;5047725;28;20029;-66
2020/12/29 02:27:05;;;;;;;9.35;5.97;;;1.20;97.20;;;;;;5047025;28;20037;-65
2020/12/29 02:29:32;;;;;;;10.63;6.05;;;1.20;97.20;;;;;;5036809;28;20442;-65
2020/12/29 02:31:58;;;;;;;10.80;6.47;;;1.30;97.20;;;;;;5048177;28;20124;-65
2020/12/29 02:34:23;;;;;;;9.30;5.85;;;1.20;97.20;;;;;;5046827;28;20092;-66
2020/12/29 02:36:49;;;;;;;8.57;5.40;;;1.30;97.20;;;;;;5043589;28;20408;-66
2020/12/29 02:39:14;;;;;;;11.65;6.72;;;1.20;97.20;;;;;;5045801;28;20027;-66
2020/12/29 02:41:40;;;;;;;7.82;5.07;;;1.20;97.20;;;;;;5048535;28;20067;-66
2020/12/29 02:44:06;;;;;;;10.65;6.32;;;1.30;97.20;;;;;;5046816;28;20025;-66
2020/12/29 02:46:31;;;;;;;10.15;6.57;;;1.20;97.20;;;;;;5048047;28;20056;-65
2020/12/29 02:48:57;;;;;;;9.02;6.40;;;1.20;97.20;;;;;;5046037;28;20466;-66
2020/12/29 02:51:22;;;;;;;9.82;6.00;;;1.20;97.20;;;;;;5030132;28;20029;-65
2020/12/29 02:53:48;;;;;;;10.85;6.70;;;1.30;97.20;;;;;;5047495;28;20029;-66
2020/12/29 02:56:18;;;;;;;9.80;6.90;;;1.30;97.20;;;;;;5048017;28;20362;-66
2020/12/29 02:58:44;;;;;;;11.10;7.15;;;1.20;97.20;;;;;;5043476;28;20059;-66
2020/12/29 03:01:09;;;;;;;10.88;7.53;;;1.30;97.20;;;;;;5046296;28;20446;-66
2020/12/29 03:03:35;;;;;;;11.40;7.72;;;1.30;97.20;;;;;;5042558;28;20086;-65
2020/12/29 03:06:00;;;;;;;10.63;7.18;;;1.30;97.20;;;;;;5038379;28;20059;-66
2020/12/29 03:08:26;;;;;;;12.52;7.38;;;1.30;97.20;;;;;;5047124;28;20477;-65
2020/12/29 03:10:51;;;;;;;11.25;7.32;;;1.30;97.20;;;;;;5046820;28;20052;-65
2020/12/29 03:13:17;;;;;;;10.70;7.68;;;1.30;97.20;;;;;;5045715;28;20024;-64
2020/12/29 03:15:43;;;;;;;12.77;7.47;;;1.30;97.20;;;;;;5027993;28;20464;-65
2020/12/29 03:18:08;;;;;;;11.77;7.97;;;1.30;97.20;;;;;;5028450;28;20033;-65
2020/12/29 03:20:34;;;;;;;13.18;8.25;;;1.30;97.20;;;;;;5045650;28;20041;-66
2020/12/29 03:22:59;;;;;;;12.45;7.82;;;1.30;97.20;;;;;;5037524;28;20059;-65
2020/12/29 03:25:25;;;;;;;13.05;8.23;;;1.30;97.20;;;;;;5038891;28;20029;-66
2020/12/29 03:27:50;;;;;;;12.40;7.72;;;1.30;97.10;;;;;;5046126;28;20021;-66
2020/12/29 03:30:16;;;;;;;13.13;8.13;;;1.30;97.20;;;;;;5044340;28;20033;-66
2020/12/29 03:32:42;;;;;;;14.15;8.50;;;1.30;97.10;;;;;;5046358;28;20044;-66
2020/12/29 03:35:07;;;;;;;14.10;9.00;;;1.30;97.20;;;;;;5027406;28;20052;-66
2020/12/29 03:37:33;;;;;;;13.93;9.30;;;1.30;97.20;;;;;;5028879;28;20040;-65
2020/12/29 03:39:58;;;;;;;15.65;9.27;;;1.30;97.20;;;;;;5026722;28;20052;-65
2020/12/29 03:42:24;;;;;;;15.77;9.68;;;1.30;97.10;;;;;;5038003;28;20067;-66
2020/12/29 03:44:50;;;;;;;13.82;9.18;;;1.30;97.10;;;;;;5024791;28;20029;-66
2020/12/29 03:47:15;;;;;;;19.02;9.95;;;1.30;97.20;;;;;;5045910;28;20024;-65
2020/12/29 03:49:41;;;;;;;15.52;9.57;;;1.30;97.20;;;;;;5043778;28;20123;-66
2020/12/29 03:52:06;;;;;;;15.68;9.95;;;1.30;97.20;;;;;;5046121;28;20126;-66
2020/12/29 03:54:32;;;;;;;18.20;10.50;;;1.30;97.20;;;;;;5044421;28;20034;-65
2020/12/29 03:56:57;;;;;;;16.35;9.10;;;1.30;97.30;;;;;;5045934;28;20458;-66
2020/12/29 03:59:23;;;;;;;18.33;10.50;;;1.30;97.30;;;;;;5032734;28;20040;-65
2020/12/29 04:01:48;;;;;;;21.38;11.10;;;1.30;97.30;;;;;;5041147;28;20497;-66
2020/12/29 04:04:14;;;;;;;21.05;10.93;;;1.30;97.30;;;;;;5038321;28;20029;-66
2020/12/29 04:06:40;;;;;;;17.65;10.23;;;1.30;97.40;;;;;;5046217;28;20028;-66
2020/12/29 04:09:05;;;;;;;18.38;10.57;;;1.30;97.40;;;;;;5000689;28;602323;-66
2020/12/29 04:11:31;;;;;;;19.65;10.90;;;1.30;97.40;;;;;;5023541;28;20097;-66
2020/12/29 04:13:56;;;;;;;21.35;10.70;;;1.30;97.40;;;;;;5040745;28;20041;-65
2020/12/29 04:16:22;;;;;;;22.45;11.63;;;1.30;97.50;;;;;;5044070;28;20032;-66
2020/12/29 04:18:48;;;;;;;23.48;12.07;;;1.30;97.40;;;;;;5043286;28;20021;-66
2020/12/29 04:21:14;;;;;;;24.02;13.35;;;1.30;97.50;;;;;;5046622;28;20116;-66
2020/12/29 04:23:39;;;;;;;24.25;13.48;;;1.30;97.50;;;;;;5044877;28;20037;-66
2020/12/29 04:26:09;;;;;;;23.58;12.13;;;1.30;97.50;;;;;;5046416;28;20124;-66
2020/12/29 04:28:34;;;;;;;22.90;13.10;;;1.30;97.50;;;;;;5044354;28;20053;-66
2020/12/29 04:31:00;;;;;;;25.63;13.52;;;1.40;97.50;;;;;;5045127;28;20033;-66
2020/12/29 04:33:25;;;;;;;29.35;12.98;;;1.30;97.50;;;;;;5045647;28;20040;-66
2020/12/29 04:35:51;;;;;;;25.63;12.30;;;1.40;97.60;;;;;;5044498;28;20139;-65
2020/12/29 04:38:16;;;;;;;25.10;13.40;;;1.30;97.60;;;;;;5044915;28;20020;-65
2020/12/29 04:40:43;;;;;;;25.90;13.38;;;1.40;97.60;;;;;;5036593;28;20045;-66
2020/12/29 04:43:08;;;;;;;27.20;13.95;;;1.40;97.60;;;;;;5044153;28;20142;-66
2020/12/29 04:45:35;;;;;;;24.30;12.90;;;1.40;97.60;;;;;;5045025;28;20059;-66
2020/12/29 04:48:01;;;;;;;23.88;12.73;;;1.40;97.60;;;;;;5045865;28;20095;-66
2020/12/29 04:50:30;;;;;;;27.10;14.15;;;1.50;97.60;;;;;;5044091;28;20048;-66
2020/12/29 04:52:57;;;;;;;23.80;12.20;;;1.50;97.60;;;;;;5028361;28;20045;-66
2020/12/29 04:55:30;;;;;;;27.33;13.57;;;1.50;97.60;;;;;;5045031;28;20040;-65
2020/12/29 04:57:58;;;;;;;25.10;13.73;;;1.50;97.60;;;;;;5046186;28;20033;-65
2020/12/29 05:00:25;;;;;;;27.05;13.55;;;1.50;97.60;;;;;;5025007;28;20017;-66
2020/12/29 05:02:51;;;;;;;27.33;13.57;;;1.50;97.70;;;;;;5043407;28;20029;-65
2020/12/29 05:05:17;;;;;;;34.60;14.30;;;1.60;97.70;;;;;;5044080;28;20131;-66
2020/12/29 05:07:45;;;;;;;25.77;12.88;;;1.50;97.70;;;;;;5045361;28;20114;-66
2020/12/29 05:10:11;;;;;;;28.33;14.27;;;1.60;97.70;;;;;;5043009;28;20033;-66
2020/12/29 05:12:50;;;;;;;29.67;14.77;;;1.60;97.70;;;;;;5026489;28;20040;-65
2020/12/29 05:15:17;;;;;;;29.70;13.75;;;1.60;97.70;;;;;;5039345;28;20013;-66
2020/12/29 05:17:43;;;;;;;29.85;14.00;;;1.60;97.70;;;;;;5045860;28;20029;-66
2020/12/29 05:20:09;;;;;;;34.13;16.17;;;1.60;97.80;;;;;;5037661;28;20032;-66
2020/12/29 05:22:38;;;;;;;31.23;15.48;;;1.70;97.80;;;;;;5038014;28;20040;-65
2020/12/29 05:25:07;;;;;;;32.92;15.77;;;1.70;97.80;;;;;;5043871;28;20032;-65
2020/12/29 05:27:37;;;;;;;30.88;14.57;;;1.70;97.80;;;;;;5045093;28;20043;-66
2020/12/29 05:30:05;;;;;;;26.05;12.57;;;1.70;97.80;;;;;;5044957;28;20139;-66
2020/12/29 05:32:35;;;;;;;37.33;16.05;;;1.70;97.80;;;;;;5045416;28;20056;-66
2020/12/29 05:35:01;;;;;;;37.83;17.17;;;1.80;97.80;;;;;;5044335;28;20409;-66
2020/12/29 05:37:29;;;;;;;28.33;14.45;;;1.80;97.80;;;;;;5028571;28;20396;-66
2020/12/29 05:39:54;;;;;;;37.50;16.58;;;1.80;97.80;;;;;;5035370;28;20078;-66
2020/12/29 05:42:28;;;;;;;38.47;19.10;;;1.80;97.90;;;;;;5045450;28;20388;-66
2020/12/29 05:44:53;;;;;;;46.95;20.17;;;1.90;97.90;;;;;;5041899;28;20405;-65
2020/12/29 05:47:23;;;;;;;43.92;19.63;;;1.90;97.90;;;;;;5043922;28;20058;-66
2020/12/29 05:49:49;;;;;;;44.35;19.05;;;1.90;97.90;;;;;;5044194;28;20073;-65
2020/12/29 05:52:15;;;;;;;44.75;19.70;;;2.00;98.00;;;;;;5039374;28;20063;-66
2020/12/29 05:54:43;;;;;;;51.33;20.38;;;2.00;98.00;;;;;;5043840;28;20095;-66
2020/12/29 05:57:11;;;;;;;50.28;21.17;;;2.10;98.00;;;;;;5036526;28;20060;-66
2020/12/29 05:59:38;;;;;;;50.58;20.52;;;2.10;98.00;;;;;;5042479;28;20021;-66
2020/12/29 06:02:08;;;;;;;49.00;20.02;;;2.10;98.00;;;;;;5025267;28;20158;-69
2020/12/29 06:04:37;;;;;;;51.97;20.40;;;2.10;98.00;;;;;;5043706;28;20044;-66
2020/12/29 06:07:05;;;;;;;51.70;22.23;;;2.10;98.00;;;;;;5042759;28;20036;-66
2020/12/29 06:11:59;;;;;;;55.70;22.60;;;2.20;98.00;;;;;;5052058;28;20053;-64
2020/12/29 06:14:26;;;;;;;60.85;23.80;;;2.20;98.10;;;;;;5034713;28;20980;-64
2020/12/29 06:16:56;;;;;;;56.40;23.60;;;2.20;98.10;;;;;;5039734;28;20032;-64
2020/12/29 06:19:29;;;;;;;63.40;23.50;;;2.20;98.10;;;;;;5033770;28;20021;-65
2020/12/29 06:22:07;;;;;;;60.22;22.98;;;2.30;98.10;;;;;;5043181;28;20032;-64
2020/12/29 06:24:39;;;;;;;65.93;25.65;;;2.30;98.10;;;;;;5042138;28;20109;-65
2020/12/29 06:27:06;;;;;;;64.35;24.10;;;2.30;98.10;;;;;;5043365;28;20040;-64
2020/12/29 06:29:38;;;;;;;59.33;24.40;;;2.30;98.10;;;;;;5037879;28;20041;-64
2020/12/29 06:32:14;;;;;;;63.03;25.35;;;2.30;98.10;;;;;;5037766;28;20720;-64
2020/12/29 06:34:41;;;;;;;63.50;25.42;;;2.30;98.10;;;;;;5032789;28;20033;-64
2020/12/29 06:37:27;;;;;;;66.88;25.17;;;2.30;98.10;;;;;;5042007;28;20387;-64
2020/12/29 06:40:00;;;;;;;67.28;26.10;;;2.30;98.10;;;;;;5037849;28;20030;-64
2020/12/29 06:42:27;;;;;;;72.57;27.67;;;2.20;98.10;;;;;;5041728;28;20029;-65
2020/12/29 06:44:57;;;;;;;69.45;26.85;;;2.30;98.20;;;;;;5040082;28;20025;-64
2020/12/29 06:47:25;;;;;;;66.60;27.27;;;2.20;98.20;;;;;;5040674;28;20036;-64
2020/12/29 06:49:51;;;;;;;68.97;26.35;;;2.20;98.20;;;;;;5041645;28;20028;-64
2020/12/29 06:52:33;;;;;;;75.20;27.63;;;2.10;98.10;;;;;;5045260;28;20021;-65
2020/12/29 06:55:00;;;;;;;68.93;27.83;;;2.10;98.10;;;;;;5051273;28;20120;-64
2020/12/29 06:57:34;;;;;;;65.47;26.42;;;2.10;98.20;;;;;;5037700;28;20074;-65
2020/12/29 07:00:12;;;;;;;59.67;26.33;;;2.10;98.20;;;;;;5039789;28;20074;-64
2020/12/29 07:02:39;;;;;;;70.18;27.45;;;2.10;98.20;;;;;;5038300;28;20392;-64
2020/12/29 07:05:13;;;;;;;67.35;26.55;;;2.00;98.20;;;;;;5039148;28;20079;-64
2020/12/29 07:07:46;;;;;;;67.95;27.40;;;2.00;98.20;;;;;;5040205;28;20094;-72
2020/12/29 07:10:13;;;;;;;67.25;28.02;;;2.00;98.20;;;;;;5034448;28;20021;-66
2020/12/29 07:12:44;;;;;;;63.40;26.85;;;1.90;98.10;;;;;;5045769;28;20029;-67
2020/12/29 07:15:13;;;;;;;;;;;1.80;98.10;;;;;;5040677;28;20028;-67
2020/12/29 07:17:38;;;;;;;55.30;24.85;;;1.70;98.10;;;;;;5039872;28;19995;-68
2020/12/29 07:20:15;;;;;;;65.95;27.10;;;1.70;98.10;;;;;;5042168;28;20121;-68
2020/12/29 07:22:41;;;;;;;62.38;24.67;;;1.60;98.10;;;;;;5046072;28;20052;-67
2020/12/29 07:25:07;;;;;;;64.05;25.30;;;1.50;98.10;;;;;;5035049;28;20094;-69
2020/12/29 07:27:36;;;;;;;72.40;26.50;;;1.40;98.10;;;;;;5045849;28;20029;-67
2020/12/29 07:30:02;;;;;;;67.07;26.95;;;1.30;98.10;;;;;;5041525;28;20083;-65
2020/12/29 07:32:28;;;;;;;79.15;29.05;;;1.30;98.10;;;;;;5046019;28;20048;-66
2020/12/29 07:34:54;;;;;;;79.30;28.15;;;1.20;98.10;;;;;;5039690;28;20025;-66
2020/12/29 07:37:22;;;;;;;75.50;26.98;;;1.10;98.20;;;;;;5041084;28;20029;-65
2020/12/29 07:39:48;;;;;;;85.38;29.00;;;1.10;98.20;;;;;;5038696;28;20343;-65
2020/12/29 07:42:14;;;;;;;90.05;27.52;;;1.10;98.20;;;;;;5040315;28;20033;-66
2020/12/29 07:44:41;;;;;;;91.47;28.63;;;1.10;98.30;;;;;;5036525;28;20048;-63
2020/12/29 07:47:07;;;;;;;93.22;30.30;;;1.00;98.30;;;;;;5028415;28;20043;-69
2020/12/29 07:49:33;;;;;;;106.78;30.60;;;1.00;98.30;;;;;;5042967;28;20029;-66
2020/12/29 07:51:59;;;;;;;106.60;29.58;;;1.00;98.30;;;;;;5041220;28;20064;-69
2020/12/29 07:54:24;;;;;;;107.75;30.80;;;1.00;98.30;;;;;;5038964;28;20345;-68
2020/12/29 07:56:50;;;;;;;107.63;31.17;;;1.00;98.30;;;;;;5033811;28;20466;-68
2020/12/29 07:59:16;;;;;;;112.85;31.42;;;1.00;98.40;;;;;;5037906;28;20029;-67
2020/12/29 08:02:01;;;;;;;122.65;33.28;;;1.00;98.40;;;;;;5034979;28;20030;-68
2020/12/29 08:04:32;;;;;;;120.75;33.08;;;1.10;98.40;;;;;;5037967;28;20104;-69
2020/12/29 08:06:58;;;;;;;138.27;33.93;;;1.10;98.40;;;;;;5040084;28;20021;-70
2020/12/29 08:09:25;;;;;;;124.60;35.17;;;1.10;98.40;;;;;;5040483;28;20040;-71
2020/12/29 08:11:51;;;;;;;126.70;35.78;;;1.20;98.40;;;;;;5043911;28;20471;-69
2020/12/29 08:14:17;;;;;;;123.88;34.22;;;1.20;98.40;;;;;;5043921;28;20336;-71
2020/12/29 08:16:43;;;;;;;119.55;33.67;;;1.30;98.40;;;;;;5043990;28;20029;-71
2020/12/29 08:19:09;;;;;;;136.95;35.40;;;1.30;98.40;;;;;;5044847;28;20456;-71
2020/12/29 08:21:36;;;;;;;113.35;32.65;;;1.30;98.40;;;;;;5040643;28;20037;-71
2020/12/29 08:24:02;;;;;;;108.72;32.08;;;1.40;98.40;;;;;;5038974;28;20369;-71
2020/12/29 08:26:28;;;;;;;105.93;32.40;;;1.40;98.40;;;;;;5038560;28;20073;-71
2020/12/29 08:28:55;;;;;;;111.95;32.40;;;1.50;98.40;;;;;;5035996;28;20120;-71
2020/12/29 08:31:21;;;;;;;97.55;32.33;;;1.50;98.40;;;;;;5041492;28;20104;-71
2020/12/29 08:33:50;;;;;;;99.28;31.10;;;1.60;98.30;;;;;;5042848;28;20021;-72
2020/12/29 08:36:27;;;;;;;105.68;32.67;;;1.60;98.30;;;;;;5037096;28;20117;-73
2020/12/29 08:39:12;;;;;;;89.90;29.80;;;1.60;98.30;;;;;;5044175;28;20024;-72
2020/12/29 08:41:41;;;;;;;83.65;29.23;;;1.60;98.30;;;;;;5038149;28;20029;-73
2020/12/29 08:44:08;;;;;;;90.10;29.52;;;1.70;98.20;;;;;;5045168;28;20052;-73
2020/12/29 08:46:35;;;;;;;74.10;27.90;;;1.70;98.20;;;;;;4987958;28;20507;-72
2020/12/29 08:49:06;;;;;;;69.35;27.10;;;1.70;98.10;;;;;;5042596;28;20428;-72
2020/12/29 08:51:39;;;;;;;65.03;25.90;;;1.70;98.10;;;;;;5035582;28;20337;-71
2020/12/29 08:54:15;;;;;;;68.50;26.63;;;1.80;98.00;;;;;;5045298;28;20128;-71
2020/12/29 08:56:42;;;;;;;67.97;26.38;;;1.80;97.90;;;;;;5028590;28;20038;-71
2020/12/29 08:59:22;;;;;;;63.80;25.40;;;1.80;97.90;;;;;;5032872;28;20053;-70
2020/12/29 09:01:55;;;;;;;53.92;24.33;;;1.90;97.80;;;;;;5038667;28;20036;-70
2020/12/29 09:04:24;;;;;;;52.17;25.33;;;1.90;97.80;;;;;;5044867;28;20450;-70
2020/12/29 09:07:01;;;;;;;50.92;23.58;;;1.90;97.70;;;;;;5036572;28;20062;-71
2020/12/29 09:09:28;;;;;;;45.03;21.70;;;2.00;97.60;;;;;;5049235;28;20108;-71
2020/12/29 09:12:14;;;;;;;38.53;21.50;;;2.00;97.60;;;;;;5041968;28;20029;-71
2020/12/29 09:15:07;;;;;;;34.65;19.92;;;2.00;97.40;;;;;;5033577;28;20029;-72
2020/12/29 09:17:44;;;;;;;40.42;20.05;;;2.00;97.30;;;;;;5040875;28;20028;-71
2020/12/29 09:20:25;;;;;;;36.78;18.42;;;2.10;97.20;;;;;;5039221;28;20033;-69
2020/12/29 09:23:18;;;;;;;39.83;19.45;;;2.10;97.10;;;;;;5030083;28;20085;-69
2020/12/29 09:25:44;;;;;;;29.55;17.45;;;2.10;97.10;;;;;;5033641;28;20420;-69
2020/12/29 09:28:26;;;;;;;29.13;17.92;;;2.10;97.10;;;;;;5037938;28;20044;-68
2020/12/29 09:30:58;;;;;;;;;;;2.20;97.00;;;;;;5029831;28;20097;-69
2020/12/29 09:33:25;;;;;;;30.83;17.55;;;2.20;96.90;;;;;;5042723;28;19935;-69
2020/12/29 09:35:51;;;;;;;27.98;17.13;;;2.20;96.90;;;;;;5033760;28;20030;-68
2020/12/29 09:38:17;;;;;;;27.08;17.30;;;2.30;96.90;;;;;;5039590;28;20032;-69
2020/12/29 09:40:44;;;;;;;26.35;15.98;;;2.30;96.90;;;;;;5051362;28;20136;-68
2020/12/29 09:43:09;;;;;;;28.20;16.08;;;2.30;96.90;;;;;;5048568;28;20499;-69
2020/12/29 09:45:35;;;;;;;23.85;14.65;;;2.40;96.90;;;;;;5038337;28;20043;-69
2020/12/29 09:48:01;;;;;;;23.73;15.73;;;2.40;96.80;;;;;;5033071;28;20033;-69
2020/12/29 09:50:26;;;;;;;23.20;15.25;;;2.40;96.70;;;;;;5039470;28;20510;-69
2020/12/29 09:52:52;;;;;;;26.88;14.70;;;2.50;96.70;;;;;;5039581;28;20146;-68
2020/12/29 09:55:18;;;;;;;21.83;13.30;;;2.50;96.60;;;;;;5027912;28;20318;-69
2020/12/29 09:57:43;;;;;;;21.10;14.35;;;2.50;96.60;;;;;;5018785;28;20041;-69
2020/12/29 10:00:09;;;;;;;19.65;12.80;;;2.60;96.60;;;;;;5041419;28;20032;-68
2020/12/29 10:02:35;;;;;;;22.02;14.10;;;2.60;96.40;;;;;;5031260;28;20464;-68
2020/12/29 10:05:00;;;;;;;20.25;12.73;;;2.60;96.30;;;;;;5031102;28;20029;-68
2020/12/29 10:07:26;;;;;;;19.05;12.25;;;2.60;96.10;;;;;;5040923;28;20031;-68
2020/12/29 10:09:52;;;;;;;18.50;11.60;;;2.70;96.10;;;;;;5033506;28;20060;-69
2020/12/29 10:12:18;;;;;;;18.92;10.80;;;2.70;96.00;;;;;;5039473;28;20364;-69
2020/12/29 10:14:44;;;;;;;16.45;11.10;;;2.70;95.70;;;;;;5049740;28;20110;-69
2020/12/29 10:17:10;;;;;;;15.90;11.20;;;2.80;95.80;;;;;;5038526;28;20040;-68
2020/12/29 10:19:36;;;;;;;14.60;10.23;;;2.80;95.60;;;;;;5043956;28;20438;-68
2020/12/29 10:22:01;;;;;;;17.48;11.85;;;2.80;95.60;;;;;;5038993;28;20051;-67
2020/12/29 10:24:29;;;;;;;19.52;11.32;;;2.80;95.70;;;;;;5046093;28;20029;-68
2020/12/29 10:26:55;;;;;;;14.95;10.57;;;2.80;95.30;;;;;;5038015;28;20403;-69
2020/12/29 10:29:21;;;;;;;15.75;10.63;;;2.90;95.40;;;;;;5039714;28;20029;-68
2020/12/29 10:31:47;;;;;;;14.98;10.30;;;2.90;95.20;;;;;;5038707;28;20029;-69
2020/12/29 10:34:14;;;;;;;14.30;10.48;;;2.90;95.20;;;;;;5040474;28;20021;-68
2020/12/29 10:36:40;;;;;;;16.00;9.85;;;3.00;95.40;;;;;;5036024;28;20316;-68
2020/12/29 10:39:08;;;;;;;15.45;9.98;;;3.00;95.40;;;;;;5033715;28;20021;-67
2020/12/29 10:41:37;;;;;;;14.95;10.07;;;3.00;95.60;;;;;;5027491;28;20116;-69
2020/12/29 10:44:03;;;;;;;15.70;9.98;;;3.00;95.30;;;;;;5032261;28;20079;-68
2020/12/29 10:46:29;;;;;;;16.08;10.93;;;3.00;95.40;;;;;;5037349;28;20029;-68
2020/12/29 10:48:55;;;;;;;14.65;9.63;;;3.00;95.30;;;;;;5034238;28;20033;-67
2020/12/29 10:51:22;;;;;;;15.30;10.23;;;3.00;95.30;;;;;;5037497;28;20033;-69
2020/12/29 10:53:49;;;;;;;13.82;9.60;;;3.00;95.40;;;;;;5041055;28;20024;-68
2020/12/29 10:56:14;;;;;;;13.80;9.85;;;3.00;95.50;;;;;;5039507;28;20151;-68
2020/12/29 10:58:43;;;;;;;16.88;9.75;;;3.00;95.40;;;;;;5039330;28;20527;-68
2020/12/29 11:01:15;;;;;;;14.77;10.00;;;3.10;95.40;;;;;;5032414;28;20028;-64
2020/12/29 11:03:41;;;;;;;15.77;9.35;;;3.10;95.40;;;;;;5038574;28;20141;-64
2020/12/29 11:06:17;;;;;;;12.93;9.40;;;3.10;95.10;;;;;;5034724;28;20112;-64
2020/12/29 11:08:43;;;;;;;11.90;9.02;;;3.10;95.00;;;;;;5041075;28;20031;-64
2020/12/29 11:11:09;;;;;;;14.18;9.88;;;3.20;95.00;;;;;;5042839;28;20432;-64
2020/12/29 11:13:35;;;;;;;14.50;9.68;;;3.20;95.20;;;;;;5032984;28;20148;-63
2020/12/29 11:16:01;;;;;;;15.57;9.20;;;3.20;94.80;;;;;;5033810;28;20067;-64
2020/12/29 11:18:27;;;;;;;16.67;9.65;;;3.30;94.80;;;;;;5037331;28;20437;-64
2020/12/29 11:20:53;;;;;;;12.73;9.20;;;3.40;94.80;;;;;;5039752;28;20060;-65
2020/12/29 11:23:19;;;;;;;12.93;9.02;;;3.50;95.00;;;;;;5041072;28;20032;-64
2020/12/29 11:25:44;;;;;;;11.50;8.07;;;3.50;94.60;;;;;;5036255;28;20052;-64
2020/12/29 11:28:10;;;;;;;14.35;8.27;;;3.50;94.10;;;;;;5039262;28;20060;-65
2020/12/29 11:30:36;;;;;;;11.55;8.30;;;3.50;94.20;;;;;;5036023;28;20025;-63
2020/12/29 11:33:02;;;;;;;14.13;8.27;;;3.50;94.00;;;;;;5033429;28;20037;-64
2020/12/29 11:35:27;;;;;;;12.77;8.52;;;3.50;94.10;;;;;;5035034;28;20026;-65
2020/12/29 11:37:53;;;;;;;12.35;8.07;;;3.60;94.50;;;;;;5036140;28;20059;-69
2020/12/29 11:40:19;;;;;;;14.52;8.88;;;3.50;94.00;;;;;;5040116;28;20318;-64
2020/12/29 11:42:44;;;;;;;11.98;8.02;;;3.60;94.30;;;;;;5039053;28;20045;-66
2020/12/29 11:45:10;;;;;;;11.73;8.13;;;3.60;94.30;;;;;;5033797;28;20014;-65
2020/12/29 11:47:36;;;;;;;11.27;8.05;;;3.60;93.90;;;;;;5037968;28;21572;-65
2020/12/29 11:50:02;;;;;;;14.38;8.75;;;3.70;94.30;;;;;;5043139;28;20385;-65
2020/12/29 11:52:28;;;;;;;11.38;7.90;;;3.70;93.90;;;;;;5037126;28;20021;-71
2020/12/29 11:54:53;;;;;;;11.50;7.47;;;3.70;93.50;;;;;;5036903;28;20030;-69
2020/12/29 11:57:19;;;;;;;11.20;7.40;;;3.70;93.40;;;;;;5038315;28;20214;-68
2020/12/29 11:59:44;;;;;;;14.18;7.57;;;3.80;93.50;;;;;;5044155;28;20366;-68
2020/12/29 12:02:10;;;;;;;11.73;7.35;;;3.80;93.40;;;;;;5035302;28;20106;-68
2020/12/29 12:04:36;;;;;;;11.13;7.18;;;3.80;93.10;;;;;;5034959;28;20029;-69
2020/12/29 12:07:10;;;;;;;12.30;7.38;;;3.90;93.50;;;;;;5035053;28;20037;-68
2020/12/29 12:09:37;;;;;;;9.15;6.28;;;3.80;93.00;;;;;;5052152;22;20030;-68
2020/12/29 12:12:03;;;;;;;12.93;7.18;;;3.80;92.90;;;;;;5072689;28;20028;-68
2020/12/29 12:14:29;;;;;;;10.60;6.40;;;3.80;93.10;;;;;;5063994;28;20085;-68
2020/12/29 12:16:55;;;;;;;11.25;7.38;;;3.80;92.80;;;;;;5061406;28;20646;-67
2020/12/29 12:19:20;;;;;;;13.43;7.22;;;3.90;93.10;;;;;;5061629;28;20489;-68
2020/12/29 12:21:46;;;;;;;12.63;7.75;;;3.80;93.00;;;;;;5050067;28;20024;-67
2020/12/29 12:24:11;;;;;;;10.18;6.68;;;3.90;93.20;;;;;;5045243;28;20373;-68
2020/12/29 12:26:37;;;;;;;12.50;7.00;;;3.80;92.50;;;;;;5045724;28;20044;-67
2020/12/29 12:29:02;;;;;;;12.63;6.97;;;3.80;92.80;;;;;;5045707;28;20029;-68
2020/12/29 12:31:28;;;;;;;9.90;6.78;;;3.80;93.10;;;;;;5036218;28;20493;-68
2020/12/29 12:33:54;;;;;;;11.98;6.85;;;3.90;93.00;;;;;;5050496;28;20100;-67
2020/12/29 12:36:19;;;;;;;13.25;6.82;;;3.90;93.10;;;;;;5050124;28;20037;-67
2020/12/29 12:38:45;;;;;;;11.05;6.90;;;3.80;92.70;;;;;;5043589;28;20163;-68
2020/12/29 12:41:11;;;;;;;10.25;5.97;;;3.90;93.20;;;;;;5047085;28;20319;-68
2020/12/29 12:43:38;;;;;;;11.45;6.88;;;3.90;92.70;;;;;;5051245;28;20021;-68
2020/12/29 12:46:06;;;;;;;13.13;7.10;;;3.80;92.90;;;;;;5047655;28;20017;-68
2020/12/29 12:48:31;;;;;;;11.35;7.25;;;3.80;93.10;;;;;;5026783;28;20037;-69